Time;durP1;ratioP1;P1;durP2;ratioP2;P2;SDS_P1;SDS_P2;PMS_P1;PMS_P2;Temp;Humidity;BMP_temperature;BMP_pressure;BME280_temperature;BME280_humidity;BME280_pressure;Samples;Min_cycle;Max_cycle;Signal;HPM_P1;HPM_P2
2022/07/28 00:02:03;;;;;;;6.03;3.58;;;;;;;21.37;66.33;100486.22;1750926;80;21330;-47
2022/07/28 00:04:32;;;;;;;6.70;3.65;;;;;;;21.33;66.40;100496.97;1758030;80;21038;-47
2022/07/28 00:06:58;;;;;;;6.33;3.50;;;;;;;21.28;66.51;100485.53;1771486;80;21150;-48
2022/07/28 00:09:25;;;;;;;5.42;2.85;;;;;;;21.27;66.53;100493.74;1763964;80;21086;-47
2022/07/28 00:11:52;;;;;;;5.47;3.33;;;;;;;21.27;66.54;100501.25;1760175;80;20982;-47
2022/07/28 00:14:20;;;;;;;6.30;3.45;;;;;;;21.30;66.35;100498.69;1771648;80;21110;-47
2022/07/28 00:16:48;;;;;;;9.33;3.47;;;;;;;21.26;66.17;100503.59;1773643;80;21090;-47
2022/07/28 00:19:16;;;;;;;6.75;3.87;;;;;;;21.23;66.21;100500.48;1761224;80;21553;-47
2022/07/28 00:21:44;;;;;;;6.42;3.20;;;;;;;21.15;66.36;100496.91;1719925;82;21063;-47
2022/07/28 00:24:12;;;;;;;6.08;3.17;;;;;;;21.15;66.40;100502.78;1754012;80;21051;-47
2022/07/28 00:26:39;;;;;;;6.72;3.58;;;;;;;21.18;66.20;100493.53;1754437;80;21074;-47
2022/07/28 00:29:07;;;;;;;6.78;3.05;;;;;;;21.16;66.15;100493.72;1743492;80;21160;-47
2022/07/28 00:31:34;;;;;;;5.70;3.37;;;;;;;21.12;66.26;100499.14;1748665;80;21196;-47
2022/07/28 00:34:00;;;;;;;4.72;2.70;;;;;;;21.08;66.40;100499.18;1759901;80;21141;-48
2022/07/28 00:36:27;;;;;;;7.50;3.08;;;;;;;21.07;66.42;100499.70;1753627;80;21050;-47
2022/07/28 00:38:55;;;;;;;5.10;2.58;;;;;;;21.09;66.55;100498.17;1756868;80;21098;-47
2022/07/28 00:41:22;;;;;;;5.08;2.72;;;;;;;21.08;65.97;100494.69;1770451;80;21070;-47
2022/07/28 00:43:50;;;;;;;6.65;2.80;;;;;;;21.05;65.96;100502.27;1770425;80;21201;-47
2022/07/28 00:46:19;;;;;;;5.28;2.40;;;;;;;21.00;65.66;100497.95;1754302;80;21106;-47
2022/07/28 00:48:50;;;;;;;6.65;2.40;;;;;;;20.94;65.06;100504.90;1769781;80;21043;-47
2022/07/28 00:51:17;;;;;;;6.10;2.45;;;;;;;20.90;65.41;100504.45;1751226;80;21066;-46
2022/07/28 00:53:44;;;;;;;7.40;2.45;;;;;;;20.90;65.31;100500.44;1772279;80;21483;-47
2022/07/28 00:56:11;;;;;;;4.78;2.60;;;;;;;20.88;65.47;100511.84;1760860;80;21808;-48
2022/07/28 00:58:38;;;;;;;4.65;2.22;;;;;;;20.85;65.72;100501.51;1709213;84;22194;-47
2022/07/28 01:01:06;;;;;;;4.53;2.12;;;;;;;20.80;65.47;100502.58;1724385;82;21540;-47
2022/07/28 01:03:35;;;;;;;5.53;2.60;;;;;;;20.80;65.66;100506.59;1769355;80;21109;-47
2022/07/28 01:06:36;;;;;;;4.80;2.65;;;;;;;20.84;65.73;100507.86;1751930;80;21022;-51
2022/07/28 01:09:34;;;;;;;5.17;2.40;;;;;;;20.85;65.28;100490.81;1650225;80;21635;-47
2022/07/28 01:12:18;;;;;;;5.25;1.92;;;;;;;20.83;65.29;100500.02;1762276;80;21541;-47
2022/07/28 01:15:01;;;;;;;5.35;1.98;;;;;;;20.77;65.56;100506.95;1762130;80;21091;-46
2022/07/28 01:17:57;;;;;;;4.83;2.37;;;;;;;20.75;65.84;100503.13;1743531;80;21046;-48
2022/07/28 01:20:43;;;;;;;4.35;1.95;;;;;;;20.78;65.70;100500.61;1742994;80;21082;-48
2022/07/28 01:23:36;;;;;;;5.67;2.15;;;;;;;20.80;65.76;100485.72;1738729;81;22290;-48
2022/07/28 01:26:43;;;;;;;5.55;2.55;;;;;;;20.78;65.71;100489.91;1748166;81;21111;-48
2022/07/28 01:29:41;;;;;;;4.28;2.10;;;;;;;20.75;65.76;100506.33;1756405;81;21051;-48
2022/07/28 01:32:24;;;;;;;5.72;2.30;;;;;;;20.74;65.64;100501.98;1762436;81;22314;-49
2022/07/28 01:35:17;;;;;;;5.80;3.17;;;;;;;20.77;65.50;100512.31;1743010;81;21012;-46
2022/07/28 01:37:48;;;;;;;6.70;2.67;;;;;;;20.72;65.80;100516.87;1747385;81;21139;-47
2022/07/28 01:40:16;;;;;;;6.62;3.35;;;;;;;20.66;66.08;100512.77;1743167;81;21071;-48
2022/07/28 01:42:47;;;;;;;5.90;3.02;;;;;;;20.63;66.25;100514.48;1673778;83;21060;-50
2022/07/28 01:45:14;;;;;;;5.33;2.90;;;;;;;20.64;66.38;100517.48;1753526;81;21067;-47
2022/07/28 01:47:44;;;;;;;5.08;2.83;;;;;;;20.68;66.37;100520.09;1765112;81;21113;-48
2022/07/28 01:50:14;;;;;;;5.40;2.95;;;;;;;20.70;66.26;100517.57;1751948;80;21791;-47
2022/07/28 01:52:41;;;;;;;6.17;3.22;;;;;;;20.72;66.16;100520.06;1735934;81;21588;-47
2022/07/28 01:55:09;;;;;;;5.12;2.87;;;;;;;20.75;66.09;100517.02;1749636;81;21055;-48
2022/07/28 01:57:37;;;;;;;6.10;3.25;;;;;;;20.72;65.96;100516.87;1761745;81;20984;-47
2022/07/28 02:00:08;;;;;;;5.40;3.22;;;;;;;20.73;65.97;100521.22;1762284;81;21964;-46
2022/07/28 02:02:37;;;;;;;6.53;3.70;;;;;;;20.71;65.76;100521.06;1755616;81;21119;-46
2022/07/28 02:05:06;;;;;;;5.85;3.45;;;;;;;20.71;65.81;100524.59;1746747;81;21051;-46
2022/07/28 02:07:33;;;;;;;5.08;3.10;;;;;;;20.73;65.67;100521.22;1737994;81;21031;-46
2022/07/28 02:10:01;;;;;;;5.62;3.47;;;;;;;20.73;65.59;100517.20;1756939;81;21114;-48
2022/07/28 02:12:28;;;;;;;6.75;3.60;;;;;;;20.72;65.59;100531.58;1757171;81;21561;-47
2022/07/28 02:14:55;;;;;;;7.20;3.05;;;;;;;20.70;65.60;100532.28;1751309;81;21846;-47
2022/07/28 02:17:26;;;;;;;5.20;2.58;;;;;;;20.69;65.56;100540.48;1759828;81;21652;-47
2022/07/28 02:19:53;;;;;;;5.28;3.02;;;;;;;20.65;65.59;100544.55;1749463;81;21078;-48
2022/07/28 02:22:20;;;;;;;6.28;2.70;;;;;;;20.64;65.48;100545.03;1756690;80;21098;-47
2022/07/28 02:24:46;;;;;;;4.70;2.60;;;;;;;20.60;65.59;100544.55;1769550;80;21046;-47
2022/07/28 02:27:46;;;;;;;5.20;2.90;;;;;;;20.55;65.83;100538.93;1761312;80;21143;-47
2022/07/28 02:30:25;;;;;;;6.45;2.47;;;;;;;20.51;66.00;100539.47;1747918;80;21921;-47
2022/07/28 02:32:54;;;;;;;5.67;2.80;;;;;;;20.46;66.13;100556.57;1733613;80;21050;-46
2022/07/28 02:35:27;;;;;;;6.92;3.17;;;;;;;20.46;66.08;100553.90;1764705;80;21580;-46
2022/07/28 02:38:03;;;;;;;6.22;2.83;;;;;;;20.44;66.20;100542.05;1764549;80;21074;-46
2022/07/28 02:40:35;;;;;;;6.95;2.65;;;;;;;20.42;66.40;100534.73;1771571;80;21140;-46
2022/07/28 02:43:05;;;;;;;5.60;2.85;;;;;;;20.36;66.38;100552.34;1744280;80;21496;-46
2022/07/28 02:45:33;;;;;;;4.83;2.90;;;;;;;20.30;66.55;100561.08;1754436;80;21461;-46
2022/07/28 02:48:04;;;;;;;4.78;2.62;;;;;;;20.28;66.72;100555.09;1770363;80;21055;-46
2022/07/28 02:50:31;;;;;;;5.20;2.95;;;;;;;20.29;66.78;100555.91;1735379;81;21027;-47
2022/07/28 02:53:00;;;;;;;6.75;3.50;;;;;;;20.29;66.86;100568.79;1767407;80;22151;-46
2022/07/28 02:55:27;;;;;;;5.17;2.92;;;;;;;20.27;66.94;100560.61;1706730;83;21034;-46
2022/07/28 02:57:54;;;;;;;5.17;2.47;;;;;;;20.28;67.03;100563.63;1758741;80;21007;-46
2022/07/28 03:00:21;;;;;;;5.05;2.77;;;;;;;20.32;66.99;100564.91;1769664;80;21033;-46
2022/07/28 03:02:47;;;;;;;6.12;2.92;;;;;;;20.37;66.88;100562.52;1763322;80;21074;-46
2022/07/28 03:05:14;;;;;;;4.90;2.85;;;;;;;20.37;66.91;100555.83;1765411;80;21195;-46
2022/07/28 03:07:42;;;;;;;6.55;2.60;;;;;;;20.37;66.75;100558.50;1768925;80;21125;-46
2022/07/28 03:10:22;;;;;;;5.62;2.95;;;;;;;20.35;66.78;100560.02;1743579;80;21118;-46
2022/07/28 03:12:49;;;;;;;5.95;2.45;;;;;;;20.36;66.75;100556.34;1756997;80;21556;-46
2022/07/28 03:15:15;;;;;;;4.80;2.40;;;;;;;20.40;66.70;100560.81;1742672;82;21040;-46
2022/07/28 03:17:42;;;;;;;6.20;2.70;;;;;;;20.45;66.69;100553.08;1750211;80;22048;-46
2022/07/28 03:20:10;;;;;;;5.65;2.70;;;;;;;20.44;66.66;100556.75;1767670;80;20943;-46
2022/07/28 03:22:38;;;;;;;4.97;2.90;;;;;;;20.42;66.74;100560.13;1764369;80;21121;-46
2022/07/28 03:25:12;;;;;;;6.80;3.30;;;;;;;20.39;66.78;100567.16;1746159;80;21102;-46
2022/07/28 03:27:43;;;;;;;6.25;2.37;;;;;;;20.37;66.72;100562.00;1752974;81;21043;-47
2022/07/28 03:30:20;;;;;;;5.47;2.58;;;;;;;20.37;66.80;100561.18;1766355;81;21063;-46
2022/07/28 03:32:50;;;;;;;5.75;2.98;;;;;;;20.36;66.90;100560.88;1758236;80;21052;-46
2022/07/28 03:35:17;;;;;;;7.03;2.80;;;;;;;20.35;66.94;100564.55;1731914;80;21106;-46
2022/07/28 03:38:13;;;;;;;5.65;2.67;;;;;;;20.32;67.06;100568.40;1735093;80;21011;-46
2022/07/28 03:40:40;;;;;;;;;;;;;;;20.33;67.16;100570.59;1746297;81;21046;-47
2022/07/28 03:43:08;;;;;;;4.70;2.42;;;;;;;20.36;67.14;100572.38;1727336;80;21136;-46
2022/07/28 03:45:34;;;;;;;6.62;2.47;;;;;;;20.40;67.04;100579.53;1747086;80;21391;-46
2022/07/28 03:48:01;;;;;;;7.65;2.35;;;;;;;20.43;66.89;100585.84;1726167;81;21004;-47
2022/07/28 03:50:29;;;;;;;4.95;2.85;;;;;;;20.44;66.86;100591.50;1761225;80;21004;-46
2022/07/28 03:52:57;;;;;;;5.47;2.98;;;;;;;20.48;66.82;100587.98;1749205;80;20999;-46
2022/07/28 03:55:24;;;;;;;6.45;2.65;;;;;;;20.50;66.51;100582.76;1741416;82;21205;-46
2022/07/28 03:57:51;;;;;;;6.45;3.42;;;;;;;20.54;65.98;100579.20;1740758;80;21157;-46
2022/07/28 04:00:17;;;;;;;7.62;4.08;;;;;;;20.62;65.82;100581.80;1723583;82;20999;-46
2022/07/28 04:02:45;;;;;;;6.40;4.15;;;;;;;20.70;65.31;100580.92;1728671;80;21027;-46
2022/07/28 04:05:14;;;;;;;7.78;5.33;;;;;;;20.73;65.18;100580.55;1734158;82;21608;-46
2022/07/28 04:07:42;;;;;;;8.13;6.10;;;;;;;20.74;65.01;100582.20;1746211;80;21803;-46
2022/07/28 04:10:12;;;;;;;8.43;5.10;;;;;;;20.73;64.24;100584.05;1743106;82;21010;-48
2022/07/28 04:12:54;;;;;;;7.58;5.05;;;;;;;20.70;64.41;100578.25;1741811;80;21034;-47
2022/07/28 04:15:22;;;;;;;8.60;5.00;;;;;;;20.77;64.43;100593.34;1734569;80;21046;-47
2022/07/28 04:17:48;;;;;;;7.78;4.37;;;;;;;20.81;64.33;100591.12;1747695;80;21106;-47
2022/07/28 04:20:16;;;;;;;12.20;7.30;;;;;;;20.86;64.40;100603.44;1747937;82;21412;-47
2022/07/28 04:22:45;;;;;;;11.60;6.83;;;;;;;20.90;64.03;100591.89;1744979;80;21059;-47
2022/07/28 04:25:12;;;;;;;12.58;8.48;;;;;;;20.89;63.83;100587.02;1735503;82;21575;-47
2022/07/28 04:27:40;;;;;;;14.93;9.05;;;;;;;20.91;63.50;100590.38;1735675;80;21571;-47
2022/07/28 04:30:12;;;;;;;11.22;8.85;;;;;;;20.93;62.58;100582.98;1721709;82;21088;-47
2022/07/28 04:32:40;;;;;;;13.65;9.00;;;;;;;20.90;61.94;100586.54;1745388;80;21613;-47
2022/07/28 04:35:10;;;;;;;12.98;8.85;;;;;;;20.85;61.35;100581.73;1748030;80;21556;-47
2022/07/28 04:37:38;;;;;;;10.38;7.95;;;;;;;20.79;60.97;100590.49;1743538;81;21063;-46
2022/07/28 04:40:06;;;;;;;10.10;7.42;;;;;;;20.69;59.85;100604.65;1744843;82;21133;-46
2022/07/28 04:42:35;;;;;;;14.03;7.90;;;;;;;20.59;60.42;100605.73;1747240;80;21071;-46
2022/07/28 04:45:06;;;;;;;11.48;7.45;;;;;;;20.54;61.00;100612.14;1764696;80;21106;-47
2022/07/28 04:47:33;;;;;;;12.40;7.65;;;;;;;20.57;61.52;100613.59;1745908;80;21562;-46
2022/07/28 04:50:00;;;;;;;12.23;7.37;;;;;;;20.60;61.90;100611.38;1736539;80;21576;-47
2022/07/28 04:52:27;;;;;;;10.50;7.20;;;;;;;20.66;61.27;100617.89;1744997;80;21060;-46
2022/07/28 04:54:53;;;;;;;9.90;7.28;;;;;;;20.67;61.89;100618.20;1747012;82;21123;-47
2022/07/28 04:57:21;;;;;;;12.98;7.85;;;;;;;20.67;62.01;100620.05;1736439;82;21071;-47
2022/07/28 04:59:48;;;;;;;10.58;6.67;;;;;;;20.65;62.09;100622.91;1746575;82;21004;-47
2022/07/28 05:02:15;;;;;;;10.85;6.85;;;;;;;20.69;61.54;100625.52;1741225;82;21202;-47
2022/07/28 05:04:42;;;;;;;9.90;6.50;;;;;;;20.74;61.57;100623.64;1746069;80;21130;-47
2022/07/28 05:07:10;;;;;;;9.00;5.33;;;;;;;20.75;60.97;100629.33;1744362;82;21095;-47
2022/07/28 05:09:38;;;;;;;9.08;5.50;;;;;;;20.77;61.02;100640.14;1704414;82;21957;-47
2022/07/28 05:12:06;;;;;;;7.72;5.33;;;;;;;20.78;60.38;100635.65;1740398;82;22363;-47
2022/07/28 05:14:33;;;;;;;10.58;4.83;;;;;;;20.78;59.79;100630.30;1739662;80;21063;-47
2022/07/28 05:17:01;;;;;;;9.05;4.92;;;;;;;20.79;59.43;100635.95;1739477;82;21054;-47
2022/07/28 05:19:28;;;;;;;7.85;4.22;;;;;;;20.81;59.15;100633.92;1672241;83;21046;-47
2022/07/28 05:21:55;;;;;;;9.68;4.05;;;;;;;20.82;59.82;100635.59;1684467;83;21240;-46
2022/07/28 05:24:22;;;;;;;9.05;4.10;;;;;;;20.85;59.30;100625.87;1682287;83;21126;-47
2022/07/28 05:26:48;;;;;;;8.28;4.05;;;;;;;20.92;58.92;100625.96;1661143;85;21109;-47
2022/07/28 05:29:14;;;;;;;6.72;4.30;;;;;;;20.97;58.59;100623.05;1731236;80;21490;-47
2022/07/28 05:31:41;;;;;;;10.53;4.08;;;;;;;21.02;57.75;100641.22;1728689;82;21142;-47
2022/07/28 05:34:08;;;;;;;9.55;4.15;;;;;;;21.05;58.01;100646.20;1728817;80;21142;-47
2022/07/28 05:36:35;;;;;;;8.20;4.10;;;;;;;21.03;56.89;100644.23;1733378;82;21142;-47
2022/07/28 05:39:02;;;;;;;7.75;4.30;;;;;;;20.99;55.92;100655.48;1729864;80;20987;-47
2022/07/28 05:41:29;;;;;;;7.30;4.35;;;;;;;20.95;56.49;100662.53;1735448;82;21042;-47
2022/07/28 05:43:57;;;;;;;11.48;4.70;;;;;;;20.93;55.83;100657.02;1745411;80;21113;-47
2022/07/28 05:46:23;;;;;;;9.93;4.83;;;;;;;20.92;54.86;100663.41;1740744;80;21146;-46
2022/07/28 05:48:50;;;;;;;8.80;3.95;;;;;;;20.94;55.47;100664.86;1746883;80;20979;-47
2022/07/28 05:51:17;;;;;;;7.72;4.50;;;;;;;20.95;55.54;100656.36;1739699;81;21109;-47
2022/07/28 05:53:44;;;;;;;10.23;4.85;;;;;;;20.97;55.92;100659.67;1732267;80;21023;-47
2022/07/28 05:56:12;;;;;;;10.18;4.42;;;;;;;20.99;56.59;100666.17;1736768;82;21679;-47
2022/07/28 05:58:40;;;;;;;7.95;4.33;;;;;;;21.04;56.79;100667.27;1732237;80;21071;-47
2022/07/28 06:01:07;;;;;;;8.78;4.10;;;;;;;21.14;56.33;100672.34;1735637;82;20990;-47
2022/07/28 06:03:35;;;;;;;10.72;4.70;;;;;;;21.20;55.90;100672.95;1734675;80;21026;-47
2022/07/28 06:06:04;;;;;;;7.67;4.50;;;;;;;21.25;56.00;100663.86;1737676;81;21090;-47
2022/07/28 06:08:32;;;;;;;11.95;4.78;;;;;;;21.31;56.43;100670.30;1743882;80;21055;-47
2022/07/28 06:11:00;;;;;;;10.03;4.10;;;;;;;21.37;56.30;100670.91;1747644;82;21199;-48
2022/07/28 06:13:28;;;;;;;7.03;4.03;;;;;;;21.40;55.77;100672.36;1746507;80;21691;-48
2022/07/28 06:15:57;;;;;;;9.60;4.03;;;;;;;21.42;55.92;100679.20;1745952;81;21058;-47
2022/07/28 06:18:25;;;;;;;7.80;3.90;;;;;;;21.46;55.74;100675.64;1746954;80;21127;-47
2022/07/28 06:20:52;;;;;;;6.55;3.70;;;;;;;21.47;55.36;100689.39;1745592;82;21074;-47
2022/07/28 06:23:20;;;;;;;6.40;3.95;;;;;;;21.46;55.63;100690.36;1739162;82;21181;-50
2022/07/28 06:25:47;;;;;;;6.28;2.52;;;;;;;21.44;55.85;100687.05;1735157;80;21050;-47
2022/07/28 06:28:14;;;;;;;5.72;2.30;;;;;;;21.46;52.91;100693.05;1745575;80;21074;-47
2022/07/28 06:30:41;;;;;;;6.17;2.47;;;;;;;21.48;52.31;100689.17;1743764;81;21110;-47
2022/07/28 06:33:09;;;;;;;8.73;4.62;;;;;;;21.54;50.80;100696.16;1742501;80;21076;-48
2022/07/28 06:35:35;;;;;;;11.08;3.17;;;;;;;21.53;51.29;100693.98;1743864;82;21137;-48
2022/07/28 06:38:02;;;;;;;8.33;4.37;;;;;;;21.55;51.48;100695.95;1746274;80;20996;-47
2022/07/28 06:40:30;;;;;;;8.50;5.20;;;;;;;21.57;51.42;100694.43;1741962;82;21088;-48
2022/07/28 06:42:56;;;;;;;13.88;7.62;;;;;;;21.60;51.45;100694.06;1744740;82;21078;-47
2022/07/28 06:45:23;;;;;;;16.65;8.60;;;;;;;21.63;51.57;100699.86;1737649;82;21126;-47
2022/07/28 06:47:51;;;;;;;14.38;9.68;;;;;;;21.66;51.54;100698.16;1738010;80;21135;-47
2022/07/28 06:50:18;;;;;;;17.37;7.05;;;;;;;21.69;52.92;100699.64;1742049;82;21105;-47
2022/07/28 06:52:45;;;;;;;11.90;5.80;;;;;;;21.73;51.64;100698.75;1732735;82;21054;-48
2022/07/28 06:55:14;;;;;;;9.50;3.90;;;;;;;21.74;50.30;100697.72;1738954;82;21075;-48
2022/07/28 06:57:41;;;;;;;6.37;2.90;;;;;;;21.75;48.98;100700.72;1735993;82;21008;-48
2022/07/28 07:00:12;;;;;;;8.10;2.75;;;;;;;21.75;49.62;100695.37;1737280;82;21846;-47
2022/07/28 07:02:39;;;;;;;7.47;2.75;;;;;;;21.76;47.90;100700.53;1739860;81;21015;-48
2022/07/28 07:05:07;;;;;;;10.93;4.83;;;;;;;21.77;47.35;100700.02;1740730;81;21620;-48
2022/07/28 07:07:35;;;;;;;6.75;3.05;;;;;;;21.77;47.47;100698.68;1739627;81;21098;-48
2022/07/28 07:10:05;;;;;;;7.55;2.80;;;;;;;21.80;48.19;100700.47;1734912;80;20991;-48
2022/07/28 07:12:33;;;;;;;6.28;2.58;;;;;;;21.83;49.06;100696.08;1726217;81;21085;-49
2022/07/28 07:15:02;;;;;;;7.03;2.00;;;;;;;21.87;49.20;100689.83;1732540;82;21605;-48
2022/07/28 07:17:30;;;;;;;6.03;2.55;;;;;;;21.89;48.68;100695.84;1741009;80;21002;-48
2022/07/28 07:19:58;;;;;;;5.72;3.10;;;;;;;21.90;49.30;100696.15;1741548;80;21553;-48
2022/07/28 07:22:25;;;;;;;5.75;2.50;;;;;;;21.97;50.08;100701.58;1741415;81;21132;-48
2022/07/28 07:24:52;;;;;;;4.65;2.15;;;;;;;22.05;49.49;100698.27;1757833;80;21103;-47
2022/07/28 07:27:19;;;;;;;6.12;1.95;;;;;;;22.10;48.82;100700.89;1760694;80;21055;-49
2022/07/28 07:29:46;;;;;;;4.05;1.62;;;;;;;22.13;46.75;100692.48;1764350;80;21098;-48
2022/07/28 07:32:12;;;;;;;6.70;1.75;;;;;;;22.16;47.80;100699.62;1760722;79;21065;-48
2022/07/28 07:34:40;;;;;;;5.60;1.60;;;;;;;22.21;47.80;100695.03;1756327;80;21024;-48
2022/07/28 07:37:10;;;;;;;5.37;1.60;;;;;;;22.25;47.57;100703.00;1764413;80;21414;-50
2022/07/28 07:39:35;;;;;;;4.62;1.47;;;;;;;22.33;48.22;100705.58;1761176;80;21078;-48
2022/07/28 07:42:01;;;;;;;5.50;1.20;;;;;;;22.40;47.51;100706.98;1765247;80;21060;-48
2022/07/28 07:44:28;;;;;;;5.35;1.60;;;;;;;22.44;47.81;100713.11;1758735;80;21136;-48
2022/07/28 07:46:54;;;;;;;7.17;1.70;;;;;;;22.49;47.89;100711.69;1760962;80;21058;-47
2022/07/28 07:49:21;;;;;;;5.47;1.82;;;;;;;22.51;47.28;100709.64;1764157;80;21180;-48
2022/07/28 07:51:48;;;;;;;7.20;1.40;;;;;;;22.53;47.11;100719.69;1773138;80;21125;-48
2022/07/28 07:54:14;;;;;;;4.50;1.52;;;;;;;22.56;45.84;100715.25;1761834;80;21591;-48
2022/07/28 07:56:42;;;;;;;5.15;1.92;;;;;;;22.60;45.48;100715.20;1766236;80;21395;-48
2022/07/28 07:59:08;;;;;;;3.95;1.75;;;;;;;22.62;46.53;100711.80;1765122;80;21557;-48
2022/07/28 08:01:35;;;;;;;6.28;2.05;;;;;;;22.68;46.71;100713.72;1769194;80;21401;-49
2022/07/28 08:04:01;;;;;;;5.58;2.30;;;;;;;22.72;45.48;100708.79;1786700;80;21045;-48
2022/07/28 08:06:28;;;;;;;6.72;2.65;;;;;;;22.75;45.17;100719.13;1779348;80;21106;-48
2022/07/28 08:08:55;;;;;;;6.12;2.72;;;;;;;22.76;45.94;100714.92;1772366;80;21061;-49
2022/07/28 08:11:21;;;;;;;5.97;1.85;;;;;;;22.79;46.42;100717.70;1782618;80;21089;-49
2022/07/28 08:13:48;;;;;;;4.50;1.80;;;;;;;22.79;43.62;100713.16;1755838;80;21523;-48
2022/07/28 08:16:15;;;;;;;5.37;1.60;;;;;;;22.81;43.84;100712.48;1763371;80;21051;-48
2022/07/28 08:18:43;;;;;;;4.47;1.65;;;;;;;22.87;44.33;100722.11;1761333;80;21047;-47
2022/07/28 08:21:12;;;;;;;5.10;1.80;;;;;;;22.92;44.30;100722.35;1757494;80;21120;-47
2022/07/28 08:23:39;;;;;;;5.80;2.10;;;;;;;22.96;45.04;100718.23;1762667;79;21109;-47
2022/07/28 08:26:05;;;;;;;4.08;1.57;;;;;;;22.99;44.70;100723.22;1751071;80;21139;-47
2022/07/28 08:28:33;;;;;;;4.17;1.47;;;;;;;23.03;44.43;100727.67;1754654;80;21095;-47
2022/07/28 08:31:00;;;;;;;5.85;2.08;;;;;;;23.04;44.09;100719.95;1743629;80;21118;-47
2022/07/28 08:33:27;;;;;;;5.12;2.30;;;;;;;23.06;44.15;100730.82;1764754;80;21538;-47
2022/07/28 08:35:54;;;;;;;5.00;2.10;;;;;;;23.11;45.67;100734.27;1710413;82;21531;-47
2022/07/28 08:38:20;;;;;;;5.50;2.40;;;;;;;23.13;45.14;100734.40;1765123;80;21111;-48
2022/07/28 08:40:48;;;;;;;5.42;2.30;;;;;;;23.14;46.25;100733.35;1755314;80;21039;-47
2022/07/28 08:43:37;;;;;;;5.72;2.20;;;;;;;23.17;44.46;100725.43;1761196;80;21549;-47
2022/07/28 08:46:07;;;;;;;4.55;1.92;;;;;;;23.24;44.60;100730.31;1752847;80;21071;-47
2022/07/28 08:48:37;;;;;;;5.15;2.12;;;;;;;23.31;45.20;100734.38;1758771;80;21141;-47
2022/07/28 08:51:06;;;;;;;5.95;2.83;;;;;;;23.36;45.47;100734.09;1759462;80;21407;-47
2022/07/28 08:53:37;;;;;;;4.58;2.10;;;;;;;23.42;44.79;100728.95;1773209;80;21035;-48
2022/07/28 08:56:06;;;;;;;5.97;2.67;;;;;;;23.48;44.74;100737.56;1754601;80;21039;-49
2022/07/28 08:58:34;;;;;;;5.15;2.00;;;;;;;23.55;45.05;100734.38;1761655;80;21004;-49
2022/07/28 09:01:01;;;;;;;5.62;2.00;;;;;;;23.63;44.57;100728.03;1766662;80;21114;-47
2022/07/28 09:03:28;;;;;;;5.90;2.37;;;;;;;23.69;44.46;100733.95;1765350;80;21653;-48
2022/07/28 09:05:55;;;;;;;4.25;2.00;;;;;;;23.74;43.52;100734.99;1771894;80;21065;-48
2022/07/28 09:08:23;;;;;;;5.00;2.08;;;;;;;23.79;44.06;100730.86;1766345;80;21058;-48
2022/07/28 09:10:51;;;;;;;5.33;2.25;;;;;;;23.80;43.81;100736.03;1770225;80;20992;-48
2022/07/28 09:13:18;;;;;;;5.97;1.92;;;;;;;23.82;43.51;100733.18;1761294;80;21055;-48
2022/07/28 09:15:45;;;;;;;4.60;1.98;;;;;;;23.82;43.56;100732.69;1768317;80;21195;-48
2022/07/28 09:18:14;;;;;;;5.20;2.20;;;;;;;23.86;43.87;100729.08;1763151;80;21011;-48
2022/07/28 09:20:43;;;;;;;6.53;2.15;;;;;;;23.89;43.07;100729.50;1759421;80;21054;-48
2022/07/28 09:23:10;;;;;;;4.67;1.95;;;;;;;23.95;43.04;100729.72;1750382;80;21542;-48
2022/07/28 09:25:36;;;;;;;6.17;2.17;;;;;;;23.96;43.28;100736.23;1760277;80;21341;-46
2022/07/28 09:28:12;;;;;;;5.70;2.40;;;;;;;23.99;42.94;100731.80;1754834;80;21183;-46
2022/07/28 09:30:42;;;;;;;7.08;2.62;;;;;;;24.05;43.91;100736.34;1760086;80;21130;-47
2022/07/28 09:33:31;;;;;;;4.72;2.20;;;;;;;24.10;43.68;100744.63;1753462;80;21082;-48
2022/07/28 09:35:57;;;;;;;6.60;2.67;;;;;;;24.15;43.72;100739.17;1762562;80;21047;-47
2022/07/28 09:40:14;;;;;;;5.40;2.45;;;;;;;24.31;43.69;100740.14;1800428;79;23228;-46
2022/07/28 09:42:45;;;;;;;8.00;2.92;;;;;;;24.38;42.59;100738.80;1774815;79;20975;-46
2022/07/28 09:45:12;;;;;;;4.80;2.20;;;;;;;24.44;42.85;100742.00;1776562;80;21951;-48
2022/07/28 09:47:39;;;;;;;6.37;2.60;;;;;;;24.48;42.49;100740.04;1775022;79;21105;-46
2022/07/28 09:50:07;;;;;;;6.12;2.60;;;;;;;24.53;43.76;100737.23;1758607;80;21050;-46
2022/07/28 09:52:36;;;;;;;4.25;2.02;;;;;;;24.62;43.43;100739.55;1749549;80;21085;-46
2022/07/28 09:55:09;;;;;;;6.53;2.42;;;;;;;24.68;41.20;100743.79;1758303;80;21047;-46
2022/07/28 09:57:38;;;;;;;4.58;2.20;;;;;;;24.73;42.02;100747.53;1756529;79;21750;-47
2022/07/28 10:00:10;;;;;;;8.68;2.83;;;;;;;24.78;40.78;100745.55;1769688;80;20979;-46
2022/07/28 10:02:41;;;;;;;5.25;2.62;;;;;;;24.81;41.50;100745.13;1761809;79;21094;-46
2022/07/28 10:05:08;;;;;;;4.97;2.50;;;;;;;24.87;41.76;100744.31;1696422;82;21074;-47
2022/07/28 10:07:35;;;;;;;7.83;2.75;;;;;;;24.90;41.84;100741.70;1707296;82;21105;-47
2022/07/28 10:10:07;;;;;;;12.15;2.75;;;;;;;24.93;42.53;100740.80;1680994;83;21159;-47
2022/07/28 10:12:36;;;;;;;4.90;2.50;;;;;;;24.99;42.62;100738.59;1718593;83;21108;-48
2022/07/28 10:18:00;;;;;;;9.93;2.90;;;;;;;25.09;42.54;100737.34;1710865;81;21201;-48
2022/07/28 10:20:29;;;;;;;7.70;2.87;;;;;;;25.10;42.16;100725.52;1708490;83;21082;-48
2022/07/28 10:23:02;;;;;;;8.73;3.15;;;;;;;25.09;42.10;100734.66;1677592;83;21149;-48
2022/07/28 10:25:33;;;;;;;5.92;2.67;;;;;;;25.11;42.28;100729.88;1720793;81;21097;-50
2022/07/28 10:28:01;;;;;;;6.70;2.80;;;;;;;25.15;42.72;100731.09;1720306;83;21023;-49
2022/07/28 10:30:30;;;;;;;8.45;2.83;;;;;;;25.21;41.64;100731.61;1702175;82;21608;-48
2022/07/28 10:32:58;;;;;;;6.17;2.67;;;;;;;25.25;41.77;100730.17;1700097;83;20995;-49
2022/07/28 10:35:25;;;;;;;7.53;2.47;;;;;;;25.29;41.41;100730.60;1708577;83;21133;-48
2022/07/28 10:38:11;;;;;;;6.58;2.83;;;;;;;25.34;41.19;100725.41;1709816;83;21007;-48
2022/07/28 10:40:45;;;;;;;7.00;3.00;;;;;;;25.37;40.29;100721.77;1704629;83;21141;-49
2022/07/28 10:43:11;;;;;;;6.85;2.90;;;;;;;25.42;41.27;100723.83;1705771;81;21570;-48
2022/07/28 10:45:39;;;;;;;6.22;2.85;;;;;;;25.53;41.70;100720.98;1707995;82;21630;-48
2022/07/28 10:48:06;;;;;;;4.90;2.70;;;;;;;25.63;41.83;100718.65;1711293;83;21126;-48
2022/07/28 10:50:36;;;;;;;5.95;2.52;;;;;;;25.71;40.68;100723.80;1708768;81;21085;-47
2022/07/28 10:53:03;;;;;;;7.10;2.27;;;;;;;25.74;40.22;100726.59;1686566;83;21110;-47
2022/07/28 10:55:40;;;;;;;5.70;2.85;;;;;;;25.79;40.18;100724.08;1709447;83;21062;-47
2022/07/28 10:58:37;;;;;;;6.15;2.47;;;;;;;25.88;41.12;100718.73;1708916;83;21066;-48
2022/07/28 11:01:04;;;;;;;5.00;2.35;;;;;;;25.99;39.80;100723.16;1710211;83;21139;-48
2022/07/28 11:03:43;;;;;;;5.62;2.02;;;;;;;26.05;40.01;100720.95;1708769;82;21067;-48
2022/07/28 11:06:34;;;;;;;6.30;2.87;;;;;;;26.11;39.26;100731.70;1714313;82;21078;-47
2022/07/28 11:09:19;;;;;;;6.60;2.95;;;;;;;26.17;39.79;100725.13;1706654;83;21099;-48
2022/07/28 11:11:53;;;;;;;7.15;2.20;;;;;;;26.28;39.90;100725.78;1709363;81;21645;-47
2022/07/28 11:14:37;;;;;;;5.47;2.77;;;;;;;26.35;38.15;100722.51;1700545;82;21617;-49
2022/07/28 11:17:11;;;;;;;7.47;2.40;;;;;;;26.38;37.99;100726.62;1702901;83;21141;-47
2022/07/28 11:19:50;;;;;;;5.75;2.77;;;;;;;26.40;37.70;100716.46;1718445;82;21103;-47
2022/07/28 11:22:21;;;;;;;6.47;2.40;;;;;;;26.46;39.43;100708.31;1701263;83;21134;-47
2022/07/28 11:25:03;;;;;;;10.25;2.40;;;;;;;26.61;37.44;100712.53;1695689;84;21030;-47
2022/07/28 11:27:45;;;;;;;5.85;2.10;;;;;;;26.71;37.58;100710.72;1698924;83;21053;-51
2022/07/28 11:30:19;;;;;;;9.00;2.60;;;;;;;26.74;37.26;100702.19;1702959;81;21491;-47
2022/07/28 11:32:55;;;;;;;6.33;2.30;;;;;;;26.75;37.01;100700.62;1707765;83;21122;-48
2022/07/28 11:35:30;;;;;;;;;;;;;;;26.73;37.17;100708.12;1709596;81;21161;-48
2022/07/28 11:38:07;;;;;;;6.22;2.10;;;;;;;26.76;37.38;100702.25;1708483;81;20184;-47
2022/07/28 11:40:45;;;;;;;3.87;1.90;;;;;;;26.79;37.49;100712.61;1715465;83;21552;-48
2022/07/28 11:43:30;;;;;;;6.15;2.17;;;;;;;26.83;36.87;100710.28;1706544;83;21126;-48